createdAt,value
2022-09-03T00:00:04.806Z,101239.22
2022-09-03T00:02:58.757Z,101238.38
2022-09-03T00:05:41.605Z,101237.19
2022-09-03T00:08:45.343Z,101239.22
2022-09-03T00:11:31.895Z,101238.72
2022-09-03T00:14:14.236Z,101232.25
2022-09-03T00:17:00.709Z,101226.34
2022-09-03T00:19:39.932Z,101231.56
2022-09-03T00:22:27.489Z,101241.28
2022-09-03T00:25:01.074Z,101234.28
2022-09-03T00:27:32.326Z,101237.00
2022-09-03T00:30:08.436Z,101236.53
2022-09-03T00:33:01.863Z,101232.78
2022-09-03T00:35:47.530Z,101231.94
2022-09-03T00:38:15.158Z,101225.66
2022-09-03T00:40:56.818Z,101229.56
2022-09-03T00:43:52.254Z,101236.84
2022-09-03T00:46:42.700Z,101232.09
2022-09-03T00:50:00.646Z,101223.44
2022-09-03T00:52:36.164Z,101225.97
2022-09-03T00:55:28.435Z,101222.59
2022-09-03T00:58:38.014Z,101221.25
2022-09-03T01:01:20.994Z,101216.31
2022-09-03T01:04:27.779Z,101224.13
2022-09-03T01:07:27.344Z,101228.06
2022-09-03T01:10:38.640Z,101214.94
2022-09-03T01:13:16.309Z,101217.66
2022-09-03T01:16:21.459Z,101221.41
2022-09-03T01:20:10.540Z,101217.66
2022-09-03T01:23:20.463Z,101221.91
2022-09-03T01:26:14.122Z,101214.25
2022-09-03T01:29:29.285Z,101217.19
2022-09-03T01:32:15.585Z,101221.94
2022-09-03T01:35:16.348Z,101219.22
2022-09-03T01:38:46.579Z,101214.94
2022-09-03T01:42:15.705Z,101212.22
2022-09-03T01:45:51.144Z,101209.03
2022-09-03T01:48:44.425Z,101210.03
2022-09-03T01:51:21.837Z,101219.88
2022-09-03T01:54:38.337Z,101217.34
2022-09-03T01:57:45.820Z,101211.91
2022-09-03T02:00:20.129Z,101206.66
2022-09-03T02:02:53.163Z,101207.31
2022-09-03T02:05:27.744Z,101208.19
2022-09-03T02:08:01.874Z,101204.59
2022-09-03T02:11:02.009Z,101203.25
2022-09-03T02:13:43.538Z,101206.50
2022-09-03T02:16:21.803Z,101200.88
2022-09-03T02:19:01.464Z,101200.22
2022-09-03T02:21:38.582Z,101201.88
2022-09-03T02:24:08.727Z,101198.69
2022-09-03T02:26:36.410Z,101194.75
2022-09-03T02:29:04.608Z,101198.53
2022-09-03T02:31:31.783Z,101205.31
2022-09-03T02:33:59.958Z,101209.03
2022-09-03T02:36:42.847Z,101206.31
2022-09-03T02:39:09.771Z,101199.50
2022-09-03T02:41:36.649Z,101198.63
2022-09-03T02:44:18.166Z,101199.50
2022-09-03T02:46:59.601Z,101194.94
2022-09-03T02:49:27.188Z,101190.47
2022-09-03T02:52:01.779Z,101195.06
2022-09-03T02:54:28.880Z,101191.84
2022-09-03T02:56:55.561Z,101187.28
2022-09-03T02:59:22.737Z,101185.41
2022-09-03T03:01:49.951Z,101177.25
2022-09-03T03:04:16.783Z,101183.03
2022-09-03T03:06:43.533Z,101187.09
2022-09-03T03:09:14.572Z,101181.66
2022-09-03T03:11:41.392Z,101186.75
2022-09-03T03:14:08.156Z,101183.38
2022-09-03T03:16:35.324Z,101189.28
2022-09-03T03:19:02.600Z,101182.66
2022-09-03T03:21:32.473Z,101185.03
2022-09-03T03:24:01.587Z,101182.81
2022-09-03T03:26:28.755Z,101188.25
2022-09-03T03:29:04.667Z,101183.69
2022-09-03T03:31:32.960Z,101189.44
2022-09-03T03:34:03.197Z,101185.22
2022-09-03T03:36:33.683Z,101185.38
2022-09-03T03:39:02.343Z,101189.09
2022-09-03T03:41:36.241Z,101181.97
2022-09-03T03:44:07.810Z,101186.56
2022-09-03T03:46:41.866Z,101184.50
2022-09-03T03:49:11.033Z,101181.94
2022-09-03T03:51:39.289Z,101189.25
2022-09-03T03:54:06.903Z,101191.94
2022-09-03T03:56:35.485Z,101189.25
2022-09-03T03:59:03.475Z,101192.78
2022-09-03T04:01:30.820Z,101188.41
2022-09-03T04:04:00.328Z,101196.00
2022-09-03T04:06:28.790Z,101195.47
2022-09-03T04:08:55.657Z,101191.72
2022-09-03T04:11:25.007Z,101197.16
2022-09-03T04:13:53.525Z,101193.41
2022-09-03T04:16:25.779Z,101206.13
2022-09-03T04:18:55.892Z,101200.06
2022-09-03T04:21:28.679Z,101201.75
2022-09-03T04:23:57.287Z,101203.78
2022-09-03T04:26:31.422Z,101195.97
2022-09-03T04:29:06.976Z,101207.13
2022-09-03T04:31:37.638Z,101197.31
2022-09-03T04:34:09.367Z,101205.28
2022-09-03T04:36:37.459Z,101204.59
2022-09-03T04:39:04.071Z,101199.50
2022-09-03T04:41:32.189Z,101210.34
2022-09-03T04:44:00.279Z,101203.38
2022-09-03T04:46:33.687Z,101198.81
2022-09-03T04:49:02.048Z,101207.28
2022-09-03T04:51:30.493Z,101198.94
2022-09-03T04:54:02.215Z,101203.00
2022-09-03T04:56:36.843Z,101209.44
2022-09-03T04:59:09.514Z,101212.84
2022-09-03T05:01:40.310Z,101212.66
2022-09-03T05:04:08.838Z,101219.47
2022-09-03T05:06:37.375Z,101211.03
2022-09-03T05:09:05.951Z,101217.78
2022-09-03T05:11:33.250Z,101207.97
2022-09-03T05:14:00.992Z,101212.22
2022-09-03T05:16:30.859Z,101217.34
2022-09-03T05:19:01.058Z,101216.31
2022-09-03T05:21:29.946Z,101219.69
2022-09-03T05:23:59.307Z,101228.72
2022-09-03T05:26:32.142Z,101223.50
2022-09-03T05:29:07.536Z,101221.81
2022-09-03T05:31:41.310Z,101225.41
2022-09-03T05:34:09.962Z,101226.09
2022-09-03T05:36:38.660Z,101229.50
2022-09-03T05:39:07.066Z,101227.66
2022-09-03T05:41:34.766Z,101219.34
2022-09-03T05:44:02.529Z,101229.53
2022-09-03T05:46:33.729Z,101228.50
2022-09-03T05:49:07.078Z,101229.25
2022-09-03T05:51:37.178Z,101227.03
2022-09-03T05:54:05.136Z,101219.72
2022-09-03T05:56:35.672Z,101229.91
2022-09-03T05:59:07.366Z,101228.53
2022-09-03T06:01:43.207Z,101226.81
2022-09-03T06:04:18.528Z,101232.09
2022-09-03T06:06:48.282Z,101232.25
2022-09-03T06:09:23.120Z,101229.50
2022-09-03T06:11:50.770Z,101226.91
2022-09-03T06:14:19.748Z,101230.09
2022-09-03T06:16:49.983Z,101236.06
2022-09-03T06:19:17.548Z,101235.84
2022-09-03T06:21:47.252Z,101235.16
2022-09-03T06:27:02.805Z,101238.25
2022-09-03T06:29:30.303Z,101232.63
2022-09-03T06:31:57.404Z,101241.28
2022-09-03T06:34:27.086Z,101243.34
2022-09-03T06:36:54.713Z,101240.06
2022-09-03T06:39:23.950Z,101237.81
2022-09-03T06:41:52.366Z,101242.72
2022-09-03T06:44:19.148Z,101243.06
2022-09-03T06:46:47.238Z,101245.88
2022-09-03T06:49:17.073Z,101241.84
2022-09-03T06:51:44.085Z,101240.47
2022-09-03T06:54:12.961Z,101244.81
2022-09-03T06:56:41.857Z,101248.09
2022-09-03T06:59:15.876Z,101242.34
2022-09-03T07:01:46.311Z,101252.81
2022-09-03T07:04:19.343Z,101254.13
2022-09-03T07:06:47.858Z,101259.75
2022-09-03T07:09:15.864Z,101256.63
2022-09-03T07:11:48.110Z,101257.63
2022-09-03T07:14:18.609Z,101262.06
2022-09-03T07:16:50.271Z,101266.22
2022-09-03T07:19:17.813Z,101267.72
2022-09-03T07:24:27.656Z,101263.31
2022-09-03T07:26:54.911Z,101259.75
2022-09-03T07:29:21.911Z,101264.28
2022-09-03T07:31:53.516Z,101264.13
2022-09-03T07:34:25.605Z,101270.88
2022-09-03T07:36:57.733Z,101272.88
2022-09-03T07:42:05.533Z,101265.16
2022-09-03T07:44:32.165Z,101261.84
2022-09-03T07:46:58.987Z,101261.56
2022-09-03T07:49:25.692Z,101257.00
2022-09-03T07:51:54.263Z,101264.59
2022-09-03T07:54:23.468Z,101261.09
2022-09-03T07:56:50.279Z,101258.88
2022-09-03T08:01:57.748Z,101254.63
2022-09-03T08:04:24.458Z,101252.09
2022-09-03T08:06:55.855Z,101262.56
2022-09-03T08:12:04.602Z,101257.59
2022-09-03T08:20:06.519Z,101267.31
2022-09-03T08:22:34.059Z,101255.03
2022-09-03T08:25:01.656Z,101269.78
2022-09-03T08:27:29.071Z,101259.38
2022-09-03T08:29:55.890Z,101260.53
2022-09-03T08:32:23.095Z,101263.34
2022-09-03T08:34:50.857Z,101251.09
2022-09-03T08:37:18.521Z,101254.09
2022-09-03T08:39:45.962Z,101255.28
2022-09-03T08:42:37.958Z,101255.25
2022-09-03T08:45:16.352Z,101261.34
2022-09-03T08:48:21.713Z,101251.00
2022-09-03T08:50:59.962Z,101260.78
2022-09-03T08:53:48.394Z,101262.69
2022-09-03T08:56:32.130Z,101254.25
2022-09-03T08:59:01.839Z,101255.25
2022-09-03T09:02:22.663Z,101258.66
2022-09-03T09:05:42.947Z,101262.25
2022-09-03T09:08:33.424Z,101260.09
2022-09-03T09:11:26.760Z,101260.13
2022-09-03T09:14:29.675Z,101251.47
2022-09-03T09:17:13.918Z,101260.50
2022-09-03T09:20:32.405Z,101249.66
2022-09-03T09:23:07.568Z,101268.44
2022-09-03T09:25:50.146Z,101262.03
2022-09-03T09:28:27.356Z,101254.00
2022-09-03T09:31:00.304Z,101259.41
2022-09-03T09:33:31.263Z,101251.75
2022-09-03T09:36:09.641Z,101258.09
2022-09-03T09:38:39.985Z,101250.31
2022-09-03T09:41:14.231Z,101247.81
2022-09-03T09:46:41.251Z,101254.59
2022-09-03T09:49:36.104Z,101254.19
2022-09-03T09:52:14.952Z,101248.47
2022-09-03T09:54:48.217Z,101251.47
2022-09-03T09:57:25.977Z,101251.50
2022-09-03T10:00:18.255Z,101254.09
2022-09-03T10:02:54.694Z,101242.59
2022-09-03T10:05:30.658Z,101247.28
2022-09-03T10:08:08.236Z,101252.34
2022-09-03T10:10:49.001Z,101240.22
2022-09-03T10:13:34.640Z,101244.78
2022-09-03T10:16:26.318Z,101240.31
2022-09-03T10:19:20.140Z,101238.59
2022-09-03T10:22:19.103Z,101242.38
2022-09-03T10:25:00.906Z,101242.31
2022-09-03T10:27:28.857Z,101240.31
2022-09-03T10:30:00.449Z,101234.63
2022-09-03T10:33:03.825Z,101236.03
2022-09-03T10:35:52.914Z,101223.53
2022-09-03T10:38:38.052Z,101246.19
2022-09-03T10:41:28.913Z,101229.31
2022-09-03T10:44:12.267Z,101226.81
2022-09-03T10:47:00.839Z,101245.09
2022-09-03T10:50:25.036Z,101228.88
2022-09-03T10:53:32.975Z,101241.63
2022-09-03T10:56:51.044Z,101231.94
2022-09-03T11:00:09.968Z,101232.75
2022-09-03T11:02:50.118Z,101213.88
2022-09-03T11:05:52.054Z,101223.41
2022-09-03T11:08:45.472Z,101222.84
2022-09-03T11:11:38.962Z,101203.22
2022-09-03T11:14:41.467Z,101206.97
2022-09-03T11:17:25.401Z,101219.75
2022-09-03T11:20:26.286Z,101202.41
2022-09-03T11:23:05.915Z,101202.31
2022-09-03T11:26:03.453Z,101197.75
2022-09-03T11:29:13.457Z,101203.16
2022-09-03T11:32:12.821Z,101193.31
2022-09-03T11:34:50.808Z,101196.06
2022-09-03T11:37:29.583Z,101202.13
2022-09-03T11:40:18.749Z,101195.31
2022-09-03T11:42:46.510Z,101201.34
2022-09-03T11:48:00.354Z,101186.25
2022-09-03T11:50:32.918Z,101185.16
2022-09-03T11:53:28.322Z,101180.44
2022-09-03T11:56:05.174Z,101177.25
2022-09-03T11:58:44.467Z,101177.13
2022-09-03T12:01:25.139Z,101174.31
2022-09-03T12:04:00.589Z,101172.66
2022-09-03T12:06:33.191Z,101176.56
2022-09-03T12:09:51.477Z,101180.97
2022-09-03T12:13:07.896Z,101170.91
2022-09-03T12:16:25.792Z,101168.81
2022-09-03T12:19:04.515Z,101172.56
2022-09-03T12:21:41.117Z,101156.38
2022-09-03T12:24:13.509Z,101160.03
2022-09-03T12:26:43.662Z,101173.00
2022-09-03T12:32:14.589Z,101167.81
2022-09-03T12:34:41.318Z,101158.44
2022-09-03T12:40:30.662Z,101159.38
2022-09-03T12:52:11.976Z,101150.81
2022-09-03T12:55:08.920Z,101147.16
2022-09-03T12:57:46.766Z,101144.28
2022-09-03T13:00:18.739Z,101138.53
2022-09-03T13:03:09.520Z,101138.84
2022-09-03T13:06:07.578Z,101137.59
2022-09-03T13:14:20.079Z,101137.81
2022-09-03T13:16:46.898Z,101139.22
2022-09-03T13:20:08.550Z,101138.63
2022-09-03T13:23:15.776Z,101134.22
2022-09-03T13:39:30.805Z,101130.16
2022-09-03T13:42:27.001Z,101127.53
2022-09-03T14:34:27.802Z,101121.72
2022-09-03T14:54:31.028Z,101110.06
2022-09-03T15:00:32.477Z,101100.34
2022-09-03T15:07:26.775Z,101113.00
2022-09-03T15:13:20.639Z,101095.97
2022-09-03T15:20:15.686Z,101110.06
2022-09-03T16:43:55.715Z,101127.63
2022-09-03T16:56:58.591Z,101121.91
2022-09-03T17:00:19.013Z,101123.47
2022-09-03T17:44:02.681Z,101128.59
2022-09-03T17:47:28.779Z,101134.72
2022-09-03T17:53:50.505Z,101131.06
2022-09-03T17:56:48.054Z,101132.69
2022-09-03T18:03:03.620Z,101146.44
2022-09-03T18:12:08.968Z,101150.03
2022-09-03T18:14:52.148Z,101159.47
2022-09-03T18:17:51.627Z,101164.03
2022-09-03T18:20:43.378Z,101167.91
2022-09-03T18:23:59.222Z,101167.06
2022-09-03T18:26:56.011Z,101179.03
2022-09-03T18:42:36.655Z,101188.88
2022-09-03T18:50:10.915Z,101204.50
2022-09-03T18:56:59.541Z,101213.03
2022-09-03T19:00:23.383Z,101212.75
2022-09-03T19:07:20.922Z,101221.09
2022-09-03T19:10:46.090Z,101213.31
2022-09-03T19:14:04.796Z,101226.44
2022-09-03T19:17:46.742Z,101222.06
2022-09-03T19:20:55.176Z,101236.38
2022-09-03T19:27:51.722Z,101229.06
2022-09-03T19:30:50.769Z,101237.25
2022-09-03T19:41:10.960Z,101243.47
2022-09-03T19:45:11.189Z,101240.25
2022-09-03T19:48:35.558Z,101246.56
2022-09-03T19:51:45.845Z,101245.03
2022-09-03T20:01:10.315Z,101246.13
2022-09-03T20:07:06.031Z,101249.09
2022-09-03T20:10:12.304Z,101245.38
2022-09-03T20:12:55.155Z,101248.97
2022-09-03T20:15:40.957Z,101242.69
2022-09-03T20:18:52.984Z,101244.56
2022-09-03T20:21:47.435Z,101248.69
2022-09-03T20:25:19.009Z,101243.78
2022-09-03T20:28:11.774Z,101247.19
2022-09-03T20:38:06.322Z,101244.03
2022-09-03T20:45:12.353Z,101254.09
2022-09-03T20:48:22.112Z,101252.06
2022-09-03T20:51:24.074Z,101258.06
2022-09-03T21:06:46.529Z,101265.28
2022-09-03T21:17:18.827Z,101263.25
2022-09-03T21:23:39.089Z,101270.06
2022-09-03T21:29:37.903Z,101267.88
2022-09-03T22:12:20.483Z,101271.97
2022-09-03T22:14:55.565Z,101274.16
2022-09-03T22:20:49.337Z,101273.16
2022-09-03T22:30:13.413Z,101273.13
2022-09-03T22:36:27.438Z,101266.50
2022-09-03T22:39:44.786Z,101260.91
2022-09-03T23:08:13.541Z,101274.69
2022-09-03T23:14:38.080Z,101271.59
2022-09-03T23:17:23.537Z,101277.91
2022-09-03T23:22:47.072Z,101270.59
2022-09-03T23:25:37.276Z,101275.69
2022-09-03T23:28:14.925Z,101271.28
2022-09-03T23:30:41.902Z,101280.78
2022-09-03T23:33:08.628Z,101269.91
2022-09-03T23:36:04.539Z,101275.00
2022-09-03T23:39:35.441Z,101279.75
2022-09-03T23:42:36.885Z,101277.41
2022-09-03T23:45:31.042Z,101284.88
2022-09-03T23:48:28.100Z,101274.16
2022-09-03T23:51:43.274Z,101279.28
2022-09-03T23:54:25.447Z,101276.19
2022-09-03T23:57:30.883Z,101270.25
